Home   Weather   Bosnia-Herzegovina   Tuzla   Past weeks
Flag for Bosnia-Herzegovina

Past Weather in Tuzla, Bosnia-Herzegovina — Yesterday and Last 2 Weeks

Currently: 25 °F. Clear. (Weather station: Tuzla, Bosnia-Herzegovina). See more current weather

Past Weather in Tuzla — Graph

°F

Tuzla Temperature Yesterday

Maximum temperature yesterday: 50 °F (at 3:00 pm)
Minimum temperature yesterday: 18 °F (at 5:30 am)
Average temperature yesterday: 34 °F

High & Low Weather Summary for the Past Weeks

 TemperatureHumidityPressure
High72 °F (Feb 22, 4:00 pm)100% (Feb 21, 3:00 am)30.66 "Hg (Feb 21, 3:00 am)
Low18 °F (Mar 7, 5:30 am)18% (Mar 4, 3:00 pm)29.98 "Hg (Mar 4, 5:00 pm)
Average44 °F69%30.37 "Hg
* Reported Feb 21 12:00 am — Mar 8 12:00 am, Tuzla. Weather by CustomWeather, © 2021

Note: Actual official high and low records may vary slightly from our data, if they occured in-between our weather recording intervals... More about our weather records

Tuzla Weather History for the Previous 24 Hours

Scroll right to see more
 ConditionsComfort  
Time TempWeatherWind HumidityBarometerVisibility
12:00 am
Mon, Mar 8
25 °FClear.1 mph93%30.07 "Hg4 mi
11:00 pm
Sun, Mar 7
28 °FClear.2 mph86%30.07 "Hg4 mi
10:30 pm27 °FClear.1 mph86%30.09 "Hg5 mi
10:00 pm28 °FClear.2 mph86%30.09 "Hg5 mi
9:30 pm30 °FClear.1 mph80%30.09 "Hg5 mi
9:00 pm28 °FClear.1 mph74%30.09 "Hg5 mi
8:30 pm32 °FClear.1 mph60%30.09 "Hg5 mi
8:00 pm30 °FClear.2 mph64%30.09 "Hg10 mi
7:30 pm32 °FClear.2 mph60%30.09 "Hg10 mi
7:00 pm36 °FClear.2 mph56%30.09 "Hg10 mi
6:30 pm37 °FClear.No wind52%30.09 "Hg10 mi
6:00 pm41 °FClear.No wind49%30.09 "Hg10 mi
5:30 pm45 °FSunny.2 mph49%30.09 "Hg10 mi
5:00 pm46 °FPassing clouds.5 mph43%30.12 "HgN/A
4:30 pm46 °FPassing clouds.5 mph43%30.12 "HgN/A
4:00 pm50 °FPassing clouds.3 mph37%30.12 "HgN/A
3:30 pm48 °FPassing clouds.3 mph40%30.15 "HgN/A
3:00 pm50 °FPassing clouds.3 mph37%30.15 "HgN/A
2:30 pm46 °FPassing clouds.5 mph43%30.15 "HgN/A
2:00 pm46 °FSunny.3 mph43%30.18 "Hg10 mi
1:30 pm46 °FSunny.2 mph43%30.18 "Hg10 mi
1:00 pm46 °FSunny.3 mph46%30.21 "Hg10 mi
12:30 pm43 °FPassing clouds.3 mph53%30.24 "HgN/A
12:00 pm43 °FSunny.5 mph57%30.24 "Hg10 mi
11:30 am41 °FSunny.5 mph70%30.27 "Hg10 mi
11:00 am41 °FPassing clouds.5 mph76%30.27 "HgN/A
10:30 am39 °FPassing clouds.7 mph81%30.30 "HgN/A
10:00 am37 °FPassing clouds.8 mph87%30.30 "HgN/A
9:30 am36 °FSunny.2 mph93%30.30 "Hg10 mi
9:00 am34 °FSunny.2 mph93%30.33 "Hg10 mi
8:30 am32 °FSunny.2 mph93%30.33 "Hg10 mi
8:00 am27 °FSunny.1 mph100%30.33 "Hg10 mi
7:30 am23 °FSunny.1 mph100%30.33 "Hg10 mi
7:00 am21 °FSunny.1 mph100%30.33 "Hg10 mi
6:30 am19 °FSunny.1 mph100%30.33 "Hg10 mi
6:00 am19 °FClear.1 mph100%30.33 "Hg10 mi
5:30 am18 °FClear.1 mph100%30.33 "Hg4 mi
5:00 am19 °FClear.1 mph100%30.36 "Hg4 mi
4:00 am21 °FClear.1 mph100%30.39 "Hg4 mi
3:00 am21 °FClear.2 mph100%30.39 "Hg4 mi
2:00 am23 °FClear.1 mph100%30.42 "Hg4 mi
1:00 am23 °FClear.1 mph100%30.42 "Hg4 mi
Weather by CustomWeather, © 2021

See weather overview